Terminal Aerodrome Forecast
Issued by NWS Kansas City/Pleasant Hill, MO

Home | Current Version | Previous Version | Text Only | Print | Product List | Glossary On
Versions: 1 2 3 4 5 6 7 8 9 10 11 12 13 14 15
022
FTUS43 KEAX 271722
TAFMCI
TAF
KMCI 271722Z 2718/2818 16013KT P6SM SKC
     FM272100 17010KT P6SM VCSH BKN035
     FM280400 18013KT P6SM BKN025
     FM280800 19014KT 4SM BR BKN015
     FM281500 21014G22KT P6SM SCT035=

USA.gov is the U.S. government's official web portal to all federal, state and local government web resources and services.